Time;durP1;ratioP1;P1;durP2;ratioP2;P2;SDS_P1;SDS_P2;PMS_P1;PMS_P2;Temp;Humidity;BMP_temperature;BMP_pressure;BME280_temperature;BME280_humidity;BME280_pressure;Samples;Min_cycle;Max_cycle;Signal;HPM_P1;HPM_P2
2022/11/18 00:01:11;;;;;;;62.83;35.07;;;13.60;96.90;;;;;;5018302;28;20199;-68
2022/11/18 00:03:39;;;;;;;61.90;36.70;;;13.60;96.80;;;;;;5019726;28;20207;-68
2022/11/18 00:06:10;;;;;;;60.80;34.70;;;13.60;96.70;;;;;;5021762;28;20197;-68
2022/11/18 00:08:37;;;;;;;58.67;32.87;;;13.60;96.70;;;;;;5018961;28;20197;-68
2022/11/18 00:11:06;;;;;;;58.50;35.80;;;13.50;96.70;;;;;;5022625;28;20211;-68
2022/11/18 00:16:19;;;;;;;57.17;35.43;;;13.50;96.70;;;;;;5021363;28;20209;-68
2022/11/18 00:18:46;;;;;;;57.40;33.50;;;13.50;96.70;;;;;;5023296;28;20237;-68
2022/11/18 00:21:13;;;;;;;61.30;34.40;;;13.50;96.70;;;;;;5016185;28;20199;-68
2022/11/18 00:23:40;;;;;;;61.20;34.33;;;13.50;96.70;;;;;;5019928;28;20306;-68
2022/11/18 00:26:11;;;;;;;67.30;36.20;;;13.50;96.80;;;;;;5018883;28;20265;-68
2022/11/18 00:28:39;;;;;;;65.97;36.97;;;13.50;96.80;;;;;;5019988;28;20219;-68
2022/11/18 00:31:12;;;;;;;63.40;38.27;;;13.50;96.80;;;;;;5022909;28;20206;-68
2022/11/18 00:33:40;;;;;;;62.47;35.17;;;13.40;96.80;;;;;;5022492;28;20215;-68
2022/11/18 00:36:09;;;;;;;60.40;34.83;;;13.40;96.90;;;;;;5021112;28;20234;-68
2022/11/18 00:38:37;;;;;;;61.63;36.10;;;13.40;96.90;;;;;;5019911;28;20206;-68
2022/11/18 00:41:11;;;;;;;59.73;34.47;;;13.40;97.00;;;;;;5022655;28;20284;-68
2022/11/18 00:43:38;;;;;;;63.83;35.67;;;13.40;97.10;;;;;;5023470;28;20246;-68
2022/11/18 00:46:08;;;;;;;59.40;35.23;;;13.40;97.10;;;;;;5027149;28;20195;-68
2022/11/18 00:48:36;;;;;;;63.63;35.60;;;13.40;97.10;;;;;;5019956;28;20206;-68
2022/11/18 00:51:13;;;;;;;64.30;36.97;;;13.40;97.10;;;;;;5024147;28;20520;-68
2022/11/18 00:53:40;;;;;;;56.13;35.63;;;13.40;97.10;;;;;;5025307;28;20645;-68
2022/11/18 00:56:08;;;;;;;60.23;35.67;;;13.40;97.10;;;;;;5023001;28;20205;-68
2022/11/18 00:58:36;;;;;;;59.70;36.13;;;13.50;97.20;;;;;;5026774;28;20205;-68
2022/11/18 01:01:03;;;;;;;65.73;38.17;;;13.40;97.10;;;;;;5019325;28;20199;-68
2022/11/18 01:03:31;;;;;;;60.27;36.67;;;13.50;97.20;;;;;;5023407;28;20263;-68
2022/11/18 01:05:58;;;;;;;58.70;37.10;;;13.50;97.20;;;;;;5018000;28;20214;-68
2022/11/18 01:08:25;;;;;;;64.43;36.57;;;13.50;97.10;;;;;;5019804;28;20691;-68
2022/11/18 01:10:52;;;;;;;71.93;39.53;;;13.50;97.40;;;;;;5026497;28;20210;-68
2022/11/18 01:13:22;;;;;;;66.93;37.90;;;13.50;97.20;;;;;;5027472;28;20210;-69
2022/11/18 01:15:51;;;;;;;60.43;35.00;;;13.50;97.20;;;;;;5022750;28;20219;-68
2022/11/18 01:18:24;;;;;;;64.50;36.23;;;13.50;97.20;;;;;;5019032;28;20192;-68
2022/11/18 01:20:52;;;;;;;61.43;36.03;;;13.50;97.20;;;;;;5023573;28;20211;-68
2022/11/18 01:23:20;;;;;;;63.40;36.63;;;13.50;97.10;;;;;;5023497;28;20239;-68
2022/11/18 01:25:48;;;;;;;57.97;36.00;;;13.50;97.00;;;;;;5022496;28;20233;-68
2022/11/18 01:28:17;;;;;;;62.23;36.60;;;13.50;97.00;;;;;;5025075;28;20213;-68
2022/11/18 01:30:50;;;;;;;65.97;38.23;;;13.50;97.00;;;;;;5021406;28;20202;-68
2022/11/18 01:33:17;;;;;;;62.63;37.27;;;13.50;97.00;;;;;;5024540;28;20213;-68
2022/11/18 01:35:44;;;;;;;65.13;37.37;;;13.50;97.10;;;;;;5024645;28;20224;-68
2022/11/18 01:38:12;;;;;;;64.40;36.77;;;13.50;97.10;;;;;;5023169;28;20210;-68
2022/11/18 01:40:40;;;;;;;64.30;37.57;;;13.50;97.10;;;;;;5023641;28;20196;-68
2022/11/18 01:43:16;;;;;;;72.67;40.60;;;13.50;97.20;;;;;;5022089;28;20314;-69
2022/11/18 01:45:45;;;;;;;73.23;40.47;;;13.50;97.20;;;;;;5023158;28;20204;-68
2022/11/18 01:48:19;;;;;;;68.77;39.53;;;13.50;97.20;;;;;;5020195;28;20206;-68
2022/11/18 01:50:51;;;;;;;62.43;37.93;;;13.50;97.20;;;;;;5024884;28;20260;-68
2022/11/18 01:53:23;;;;;;;69.50;38.27;;;13.50;97.20;;;;;;5020281;28;20528;-69
2022/11/18 01:55:52;;;;;;;68.00;39.33;;;13.50;97.10;;;;;;5019512;28;20265;-68
2022/11/18 01:58:43;;;;;;;62.43;37.73;;;13.50;97.10;;;;;;5020342;28;20576;-68
2022/11/18 02:01:10;;;;;;;62.83;37.93;;;13.50;97.10;;;;;;5021017;28;20197;-68
2022/11/18 02:03:38;;;;;;;64.40;39.47;;;13.50;97.20;;;;;;5020450;28;20215;-69
2022/11/18 02:06:07;;;;;;;64.43;38.43;;;13.50;97.20;;;;;;5023839;28;20270;-68
2022/11/18 02:08:38;;;;;;;76.17;40.33;;;13.50;97.20;;;;;;5023078;28;20204;-68
2022/11/18 02:11:49;;;;;;;71.77;40.67;;;13.50;97.20;;;;;;5023198;28;20511;-68
2022/11/18 02:13:59;;;;;;;60.37;37.50;;;13.50;97.20;;;;;;5036151;28;20263;-68
2022/11/18 02:16:51;;;;;;;67.73;37.93;;;13.50;97.20;;;;;;5023218;28;20199;-69
2022/11/18 02:19:30;;;;;;;66.10;37.77;;;13.50;97.20;;;;;;5022845;28;20261;-68
2022/11/18 02:22:15;;;;;;;67.67;38.00;;;13.50;97.30;;;;;;5029583;28;20195;-68
2022/11/18 02:25:05;;;;;;;63.53;35.63;;;13.50;97.30;;;;;;5017459;28;20234;-68
2022/11/18 02:28:09;;;;;;;62.50;37.93;;;13.50;97.30;;;;;;5021771;28;20200;-68
2022/11/18 02:30:48;;;;;;;61.73;38.03;;;13.50;97.30;;;;;;5015730;28;20642;-68
2022/11/18 02:33:38;;;;;;;68.13;37.93;;;13.50;97.30;;;;;;5022652;28;20196;-68
2022/11/18 02:36:49;;;;;;;62.73;36.53;;;13.60;97.30;;;;;;5021111;28;20534;-68
2022/11/18 02:39:23;;;;;;;65.13;37.33;;;13.60;97.30;;;;;;5021687;28;20208;-68
2022/11/18 02:41:55;;;;;;;59.07;37.20;;;13.60;97.20;;;;;;5017405;28;20219;-69
2022/11/18 02:44:25;;;;;;;62.17;37.47;;;13.60;97.20;;;;;;5016396;28;20197;-68
2022/11/18 02:46:57;;;;;;;62.77;37.00;;;13.60;97.20;;;;;;5017790;28;20206;-68
2022/11/18 02:49:41;;;;;;;66.37;37.73;;;13.60;97.20;;;;;;5019408;28;20211;-68
2022/11/18 02:52:10;;;;;;;67.93;39.70;;;13.60;97.20;;;;;;5026231;28;20249;-68
2022/11/18 02:54:41;;;;;;;64.60;39.30;;;13.60;97.20;;;;;;5023089;28;20204;-68
2022/11/18 02:57:08;;;;;;;69.80;40.40;;;13.60;97.20;;;;;;5019533;28;20222;-68
2022/11/18 02:59:35;;;;;;;67.67;39.67;;;13.60;97.10;;;;;;5020159;28;20210;-68
2022/11/18 03:02:03;;;;;;;66.17;38.40;;;13.60;97.10;;;;;;5023461;28;20193;-68
2022/11/18 03:04:31;;;;;;;63.70;38.23;;;13.60;97.10;;;;;;5024151;28;20259;-68
2022/11/18 03:07:26;;;;;;;65.70;40.47;;;13.60;97.10;;;;;;5016941;28;20510;-68
2022/11/18 03:09:53;;;;;;;70.43;39.13;;;13.60;97.10;;;;;;5019451;28;20240;-68
2022/11/18 03:12:54;;;;;;;70.70;38.73;;;13.60;97.10;;;;;;5020372;28;20629;-68
2022/11/18 03:15:29;;;;;;;63.40;38.27;;;13.60;97.10;;;;;;5018076;28;20202;-68
2022/11/18 03:18:05;;;;;;;65.03;37.20;;;13.60;97.10;;;;;;5021182;28;20201;-68
2022/11/18 03:20:41;;;;;;;71.07;38.40;;;13.60;97.10;;;;;;5022846;28;20217;-68
2022/11/18 03:23:11;;;;;;;68.27;40.23;;;13.60;97.10;;;;;;5021716;28;20321;-69
2022/11/18 03:25:55;;;;;;;65.27;38.17;;;13.60;97.10;;;;;;5017968;28;20210;-68
2022/11/18 03:28:24;;;;;;;68.83;39.10;;;13.60;97.00;;;;;;5021394;28;20586;-68
2022/11/18 03:31:05;;;;;;;72.27;40.10;;;13.50;97.00;;;;;;5020048;28;20282;-68
2022/11/18 03:33:38;;;;;;;66.80;39.70;;;13.50;97.00;;;;;;5020373;28;20208;-69
2022/11/18 03:36:08;;;;;;;74.00;40.60;;;13.50;96.90;;;;;;5018570;28;20265;-69
2022/11/18 03:38:49;;;;;;;71.97;40.80;;;13.50;97.00;;;;;;5025834;28;20215;-68
2022/11/18 03:41:18;;;;;;;76.23;40.90;;;13.40;97.10;;;;;;5017946;28;20195;-69
2022/11/18 03:43:57;;;;;;;84.27;41.33;;;13.40;97.20;;;;;;5018558;28;20217;-69
2022/11/18 03:46:46;;;;;;;83.47;42.63;;;13.40;97.40;;;;;;5025362;28;20259;-68
2022/11/18 03:49:20;;;;;;;86.27;41.57;;;13.30;97.50;;;;;;5016892;28;20206;-69
2022/11/18 03:51:54;;;;;;;80.77;42.63;;;13.30;97.50;;;;;;5026633;28;20207;-68
2022/11/18 03:54:26;;;;;;;84.73;43.23;;;13.30;97.60;;;;;;5023708;28;20298;-69
2022/11/18 03:57:00;;;;;;;87.13;42.53;;;13.30;97.60;;;;;;5021088;28;20210;-69
2022/11/18 03:59:49;;;;;;;87.23;42.53;;;13.30;97.70;;;;;;5021647;28;20217;-68
2022/11/18 04:02:28;;;;;;;87.63;43.50;;;13.40;97.70;;;;;;5024183;28;20194;-69
2022/11/18 04:04:57;;;;;;;86.00;43.17;;;13.40;97.80;;;;;;5021241;28;20305;-69
2022/11/18 04:07:43;;;;;;;81.27;41.50;;;13.40;97.80;;;;;;5024531;28;20196;-69
2022/11/18 04:10:18;;;;;;;78.93;41.57;;;13.40;97.80;;;;;;5017753;28;20198;-68
2022/11/18 04:12:55;;;;;;;86.37;42.37;;;13.40;97.70;;;;;;5016512;28;20225;-68
2022/11/18 04:15:28;;;;;;;84.87;43.93;;;13.40;97.70;;;;;;5019314;28;21091;-69
2022/11/18 04:17:56;;;;;;;84.20;42.93;;;13.40;97.60;;;;;;5025127;28;20206;-69
2022/11/18 04:20:23;;;;;;;84.00;42.47;;;13.40;97.60;;;;;;5023784;28;20198;-68
2022/11/18 04:22:50;;;;;;;82.20;42.13;;;13.40;97.60;;;;;;5027712;28;20230;-69
2022/11/18 04:25:17;;;;;;;79.13;42.60;;;13.40;97.60;;;;;;5025997;28;20689;-69
2022/11/18 04:27:44;;;;;;;77.90;40.70;;;13.40;97.50;;;;;;5019565;28;20214;-69
2022/11/18 04:30:13;;;;;;;82.33;40.47;;;13.40;97.50;;;;;;5035558;28;20241;-69
2022/11/18 04:32:40;;;;;;;77.23;39.63;;;13.40;97.60;;;;;;5026426;28;20633;-69
2022/11/18 04:35:07;;;;;;;75.47;39.77;;;13.30;97.60;;;;;;5042433;28;20219;-69
2022/11/18 04:37:34;;;;;;;78.27;40.57;;;13.30;97.70;;;;;;5022197;28;20688;-69
2022/11/18 04:40:02;;;;;;;83.10;41.50;;;13.30;97.90;;;;;;5020679;28;20206;-69
2022/11/18 04:42:29;;;;;;;73.80;40.47;;;13.30;98.00;;;;;;5021534;28;20554;-69
2022/11/18 04:44:57;;;;;;;77.90;40.80;;;13.30;98.10;;;;;;5020514;28;20207;-69
2022/11/18 04:47:24;;;;;;;81.23;41.30;;;13.20;98.10;;;;;;5023623;28;20656;-69
2022/11/18 04:49:51;;;;;;;84.13;41.07;;;13.20;98.20;;;;;;5029477;28;20226;-69
2022/11/18 04:52:18;;;;;;;94.13;42.50;;;13.30;98.30;;;;;;5021344;28;20202;-69
2022/11/18 04:54:45;;;;;;;85.70;41.50;;;13.20;98.30;;;;;;5025766;28;20272;-69
2022/11/18 04:57:13;;;;;;;85.03;43.70;;;13.20;98.40;;;;;;5023449;28;20210;-69
2022/11/18 04:59:40;;;;;;;89.63;41.77;;;13.20;98.50;;;;;;5039265;28;20262;-69
2022/11/18 05:02:07;;;;;;;77.97;42.77;;;13.20;98.60;;;;;;5027673;28;20694;-69
2022/11/18 05:04:34;;;;;;;80.97;41.67;;;13.20;98.60;;;;;;5021680;28;20215;-69
2022/11/18 05:07:04;;;;;;;85.77;42.00;;;13.30;98.60;;;;;;5022152;28;20210;-69
2022/11/18 05:09:31;;;;;;;80.60;41.47;;;13.20;98.90;;;;;;5024226;28;20586;-69
2022/11/18 05:14:44;;;;;;;83.23;41.03;;;13.30;98.70;;;;;;5022042;28;20228;-69
2022/11/18 05:17:16;;;;;;;84.30;40.47;;;13.30;98.70;;;;;;5020865;28;20202;-69
2022/11/18 05:19:43;;;;;;;92.47;41.93;;;13.30;98.70;;;;;;5023187;28;20215;-69
2022/11/18 05:22:10;;;;;;;85.47;41.37;;;13.30;98.70;;;;;;5027744;28;20280;-69
2022/11/18 05:24:37;;;;;;;82.73;40.57;;;13.30;98.70;;;;;;5041257;28;20711;-69
2022/11/18 05:27:04;;;;;;;84.87;41.47;;;13.40;98.70;;;;;;5019353;28;20710;-69
2022/11/18 05:29:32;;;;;;;92.10;43.17;;;13.40;98.70;;;;;;5023998;28;20210;-69
2022/11/18 05:31:59;;;;;;;95.70;44.33;;;13.40;98.60;;;;;;5024522;28;20224;-69
2022/11/18 05:34:26;;;;;;;101.13;46.07;;;13.40;98.60;;;;;;5022750;28;20210;-69
2022/11/18 05:36:53;;;;;;;102.83;46.30;;;13.40;98.60;;;;;;5021120;28;20241;-69
2022/11/18 05:39:20;;;;;;;97.07;44.80;;;13.40;98.60;;;;;;5021820;28;20637;-69
2022/11/18 05:44:33;;;;;;;78.03;40.10;;;13.40;98.80;;;;;;5022521;28;20207;-69
2022/11/18 05:47:00;;;;;;;85.40;41.73;;;13.40;98.50;;;;;;5024300;28;20286;-69
2022/11/18 05:49:27;;;;;;;89.37;41.87;;;13.40;98.50;;;;;;5022702;28;20565;-69
2022/11/18 05:51:54;;;;;;;98.90;43.37;;;13.40;98.50;;;;;;5022514;28;20625;-68
2022/11/18 05:54:22;;;;;;;92.27;43.03;;;13.40;98.50;;;;;;5023674;28;20211;-69
2022/11/18 05:56:49;;;;;;;101.03;45.10;;;13.40;98.50;;;;;;5026573;28;20214;-69
2022/11/18 05:59:16;;;;;;;91.50;43.20;;;13.40;98.50;;;;;;5023805;28;20556;-69
2022/11/18 06:01:43;;;;;;;91.80;43.10;;;13.50;98.50;;;;;;5021703;28;20206;-69
2022/11/18 06:04:19;;;;;;;89.13;41.67;;;13.40;98.50;;;;;;5022604;28;20218;-69
2022/11/18 06:06:48;;;;;;;90.50;41.80;;;13.40;98.50;;;;;;5019435;28;20540;-69
2022/11/18 06:09:19;;;;;;;96.57;42.17;;;13.40;98.50;;;;;;5022665;28;20248;-69
2022/11/18 06:11:52;;;;;;;90.10;43.27;;;13.40;98.50;;;;;;5018772;28;20196;-69
2022/11/18 06:14:25;;;;;;;83.00;41.63;;;13.40;98.50;;;;;;5021186;28;20211;-69
2022/11/18 06:16:56;;;;;;;81.80;39.63;;;13.40;98.50;;;;;;5023262;28;20207;-69
2022/11/18 06:19:24;;;;;;;82.43;39.13;;;13.40;98.50;;;;;;5022293;28;20206;-69
2022/11/18 06:21:52;;;;;;;76.47;39.00;;;13.50;98.50;;;;;;5020954;28;20215;-68
2022/11/18 06:24:20;;;;;;;79.43;36.33;;;13.40;98.40;;;;;;5018325;28;20229;-68
2022/11/18 06:26:47;;;;;;;80.67;37.20;;;13.40;98.50;;;;;;5022772;28;20294;-68
2022/11/18 06:29:17;;;;;;;74.20;36.43;;;13.40;98.50;;;;;;5023892;28;20533;-68
2022/11/18 06:31:53;;;;;;;71.83;33.23;;;13.50;98.50;;;;;;5029916;28;20199;-69
2022/11/18 06:34:20;;;;;;;66.93;36.30;;;13.50;98.50;;;;;;5018533;28;20196;-69
2022/11/18 06:36:47;;;;;;;66.60;35.93;;;13.50;98.50;;;;;;5019060;28;20616;-69
2022/11/18 06:39:14;;;;;;;64.37;35.50;;;13.50;98.50;;;;;;5023470;28;20201;-69
2022/11/18 06:41:41;;;;;;;70.43;34.03;;;13.50;98.40;;;;;;5020515;28;20207;-69
2022/11/18 06:44:11;;;;;;;65.83;32.70;;;13.40;98.40;;;;;;5022785;28;20561;-69
2022/11/18 06:46:56;;;;;;;64.00;34.40;;;13.40;98.40;;;;;;5021175;28;20197;-69
2022/11/18 06:49:26;;;;;;;58.60;33.13;;;13.40;98.50;;;;;;5022178;28;20196;-69
2022/11/18 06:51:54;;;;;;;69.90;33.83;;;13.40;98.50;;;;;;5020598;28;20199;-69
2022/11/18 06:54:21;;;;;;;58.67;32.70;;;13.40;98.80;;;;;;5021428;28;20224;-68
2022/11/18 06:56:48;;;;;;;59.00;33.03;;;13.50;98.60;;;;;;5014872;28;20650;-69
2022/11/18 06:59:21;;;;;;;57.63;31.90;;;13.50;98.60;;;;;;5026352;28;20209;-69
2022/11/18 07:01:48;;;;;;;61.13;31.70;;;13.50;98.60;;;;;;5020310;28;20210;-69
2022/11/18 07:04:15;;;;;;;65.87;31.77;;;13.50;98.60;;;;;;5016318;28;20312;-69
2022/11/18 07:06:42;;;;;;;64.80;31.83;;;13.50;98.60;;;;;;5019129;28;20278;-69
2022/11/18 07:09:09;;;;;;;62.20;29.57;;;13.50;98.50;;;;;;5021594;28;20199;-69
2022/11/18 07:11:39;;;;;;;66.57;31.80;;;13.50;98.60;;;;;;5019304;28;20583;-68
2022/11/18 07:14:09;;;;;;;65.77;31.07;;;13.50;98.60;;;;;;5021270;28;20203;-69
2022/11/18 07:16:36;;;;;;;66.43;32.57;;;13.50;98.50;;;;;;5023892;28;20626;-68
2022/11/18 07:19:11;;;;;;;64.93;31.67;;;13.50;98.50;;;;;;5021172;28;20206;-69
2022/11/18 07:21:38;;;;;;;69.27;32.23;;;13.50;98.50;;;;;;5022792;28;20207;-69
2022/11/18 07:24:07;;;;;;;66.03;33.13;;;13.50;98.60;;;;;;5022952;28;20539;-69
2022/11/18 07:26:34;;;;;;;73.37;33.47;;;13.50;98.50;;;;;;5022765;28;20207;-68
2022/11/18 07:29:01;;;;;;;75.10;34.70;;;13.60;98.50;;;;;;5022187;28;20202;-68
2022/11/18 07:31:28;;;;;;;79.87;34.83;;;13.60;98.50;;;;;;5018289;28;20625;-69
2022/11/18 07:33:56;;;;;;;80.83;34.77;;;13.60;98.50;;;;;;5022350;28;20207;-68
2022/11/18 07:36:25;;;;;;;79.00;34.53;;;13.60;98.40;;;;;;5021294;28;20218;-68
2022/11/18 07:39:02;;;;;;;77.23;32.53;;;13.60;98.50;;;;;;5021699;28;20243;-69
2022/11/18 07:41:29;;;;;;;86.53;35.43;;;13.60;98.50;;;;;;5020734;28;20300;-68
2022/11/18 07:43:58;;;;;;;93.70;34.70;;;13.60;98.40;;;;;;5020895;28;20228;-69
2022/11/18 07:46:35;;;;;;;97.80;35.70;;;13.60;98.40;;;;;;5019928;28;20279;-69
2022/11/18 07:49:05;;;;;;;109.40;36.03;;;13.60;98.40;;;;;;5025430;28;20620;-65
2022/11/18 07:51:35;;;;;;;106.47;36.70;;;13.70;98.40;;;;;;5027400;28;20203;-70
2022/11/18 07:54:07;;;;;;;107.93;37.03;;;13.60;98.30;;;;;;5026504;28;20227;-69
2022/11/18 07:56:34;;;;;;;107.97;38.33;;;13.70;98.40;;;;;;5023266;28;20222;-69
2022/11/18 07:59:01;;;;;;;110.47;36.20;;;13.70;98.40;;;;;;5024856;28;20234;-68
2022/11/18 08:01:29;;;;;;;97.90;37.03;;;13.70;98.40;;;;;;5024875;28;20206;-68
2022/11/18 08:04:03;;;;;;;106.37;38.27;;;13.70;98.60;;;;;;5025182;28;20285;-71
2022/11/18 08:06:32;;;;;;;98.30;36.83;;;13.70;98.40;;;;;;5019868;28;20205;-70
2022/11/18 08:09:00;;;;;;;102.73;37.97;;;13.80;98.40;;;;;;5025214;28;20297;-67
2022/11/18 08:11:27;;;;;;;102.07;37.10;;;13.80;98.60;;;;;;5023398;28;20645;-69
2022/11/18 08:13:54;;;;;;;103.33;35.43;;;13.80;98.30;;;;;;5043063;28;20687;-68
2022/11/18 08:16:23;;;;;;;92.33;38.47;;;13.80;98.30;;;;;;5021274;28;20199;-68
2022/11/18 08:18:51;;;;;;;94.90;36.73;;;13.80;98.20;;;;;;5023392;28;20199;-68
2022/11/18 08:21:20;;;;;;;90.00;37.13;;;13.80;98.20;;;;;;5022326;28;20199;-68
2022/11/18 08:23:52;;;;;;;82.83;36.30;;;13.80;98.20;;;;;;5020617;28;20251;-68
2022/11/18 08:26:20;;;;;;;85.67;35.50;;;13.90;98.20;;;;;;5022483;28;20195;-69
2022/11/18 08:28:48;;;;;;;82.50;34.90;;;13.90;98.10;;;;;;5020445;28;20633;-69
2022/11/18 08:31:18;;;;;;;77.20;35.00;;;13.90;98.00;;;;;;5020814;28;20497;-69
2022/11/18 08:33:45;;;;;;;73.23;35.00;;;13.90;98.00;;;;;;5031220;28;20202;-68
2022/11/18 08:36:17;;;;;;;72.43;35.47;;;13.90;97.90;;;;;;5021529;28;20199;-68
2022/11/18 08:38:44;;;;;;;74.97;35.13;;;13.80;97.90;;;;;;5027700;28;20508;-68
2022/11/18 08:41:18;;;;;;;77.03;35.67;;;13.90;98.00;;;;;;5023145;28;20261;-68
2022/11/18 08:43:45;;;;;;;69.93;35.90;;;13.90;98.00;;;;;;5020134;28;20218;-68
2022/11/18 08:46:12;;;;;;;75.30;35.03;;;13.90;98.00;;;;;;5018974;28;20195;-68
2022/11/18 08:48:39;;;;;;;74.20;36.73;;;14.00;98.10;;;;;;5025401;28;20231;-68
2022/11/18 08:51:10;;;;;;;74.60;36.13;;;14.00;98.10;;;;;;5027920;28;20198;-68
2022/11/18 08:53:37;;;;;;;65.00;36.67;;;14.10;98.10;;;;;;5025915;28;20211;-68
2022/11/18 08:56:04;;;;;;;66.93;35.90;;;14.20;98.10;;;;;;5031529;28;20202;-68
2022/11/18 08:58:31;;;;;;;68.83;35.60;;;14.30;97.90;;;;;;5054543;28;20210;-68
2022/11/18 09:01:04;;;;;;;59.93;34.67;;;14.40;97.80;;;;;;5023611;28;20253;-68
2022/11/18 09:03:31;;;;;;;60.83;34.53;;;14.30;97.60;;;;;;5018785;28;20195;-68
2022/11/18 09:06:16;;;;;;;67.50;38.27;;;14.40;97.50;;;;;;5018679;28;20598;-68
2022/11/18 09:08:44;;;;;;;78.50;37.50;;;14.40;97.40;;;;;;5030882;28;20297;-68
2022/11/18 09:11:17;;;;;;;69.33;38.43;;;14.30;97.30;;;;;;5019103;28;20207;-68
2022/11/18 09:13:44;;;;;;;72.27;39.50;;;14.40;97.30;;;;;;5018897;28;20204;-68
2022/11/18 09:16:33;;;;;;;74.73;40.70;;;14.40;97.30;;;;;;5021550;28;20199;-68
2022/11/18 09:19:01;;;;;;;70.70;39.07;;;14.40;97.30;;;;;;5022196;28;20256;-67
2022/11/18 09:21:48;;;;;;;72.63;40.00;;;14.50;97.20;;;;;;5020610;28;20281;-68
2022/11/18 09:24:16;;;;;;;70.77;38.27;;;14.60;97.00;;;;;;5021429;28;20694;-68
2022/11/18 09:26:43;;;;;;;67.30;38.10;;;14.70;96.80;;;;;;5032772;28;20202;-68
2022/11/18 09:29:10;;;;;;;73.43;40.23;;;14.60;96.40;;;;;;5020914;28;20202;-68
2022/11/18 09:31:37;;;;;;;69.67;39.57;;;14.60;96.30;;;;;;5020194;28;20306;-67
2022/11/18 09:34:04;;;;;;;72.63;39.80;;;14.60;96.30;;;;;;5028414;28;20203;-69
2022/11/18 09:36:31;;;;;;;71.67;39.23;;;14.60;96.20;;;;;;5020881;28;20211;-68
2022/11/18 09:38:59;;;;;;;72.20;41.20;;;14.50;96.10;;;;;;5017026;28;20644;-68
2022/11/18 09:41:32;;;;;;;78.27;40.60;;;14.50;96.20;;;;;;5040525;28;20230;-68
2022/11/18 09:43:59;;;;;;;68.00;39.77;;;14.60;96.20;;;;;;5052483;28;20621;-67
2022/11/18 09:46:47;;;;;;;71.77;39.77;;;14.60;96.20;;;;;;5022990;28;20202;-68
2022/11/18 09:49:25;;;;;;;73.07;38.60;;;14.60;96.10;;;;;;5025164;28;20284;-67
2022/11/18 09:51:53;;;;;;;77.00;40.50;;;14.60;96.10;;;;;;5052676;28;20214;-67
2022/11/18 09:54:33;;;;;;;76.70;41.27;;;14.60;96.00;;;;;;5025127;28;20222;-68
2022/11/18 09:57:01;;;;;;;76.43;41.13;;;14.50;96.00;;;;;;5016343;28;20219;-68
2022/11/18 09:59:31;;;;;;;79.37;41.83;;;14.50;96.00;;;;;;5017285;28;20290;-67
2022/11/18 10:02:28;;;;;;;76.20;41.77;;;14.50;96.10;;;;;;5017208;28;20211;-67
2022/11/18 10:05:06;;;;;;;82.13;40.97;;;14.60;96.30;;;;;;5020058;28;20653;-68
2022/11/18 10:07:48;;;;;;;73.97;42.60;;;14.70;96.40;;;;;;5018039;28;20278;-68
2022/11/18 10:10:21;;;;;;;76.70;43.00;;;14.90;96.40;;;;;;5019589;28;20196;-68
2022/11/18 10:12:55;;;;;;;72.20;42.77;;;15.00;96.20;;;;;;5019904;28;20205;-67
2022/11/18 10:16:02;;;;;;;71.80;41.23;;;15.30;95.90;;;;;;5018233;28;20210;-67
2022/11/18 10:18:52;;;;;;;68.37;41.53;;;15.50;95.10;;;;;;4989388;28;20316;-67
2022/11/18 10:21:47;;;;;;;66.57;40.80;;;15.60;94.70;;;;;;5025242;28;20199;-68
2022/11/18 10:24:20;;;;;;;61.97;38.73;;;15.70;94.00;;;;;;5026099;28;20329;-67
2022/11/18 10:26:53;;;;;;;67.37;40.53;;;15.70;93.70;;;;;;5025209;28;20210;-67
2022/11/18 10:29:20;;;;;;;65.07;39.37;;;15.70;93.60;;;;;;5021036;28;20192;-67
2022/11/18 10:32:06;;;;;;;68.00;39.20;;;15.80;93.60;;;;;;5028139;28;20199;-67
2022/11/18 10:34:49;;;;;;;64.80;38.50;;;15.90;93.50;;;;;;5019471;28;20209;-67
2022/11/18 10:37:31;;;;;;;66.27;39.63;;;16.00;93.50;;;;;;5022835;28;20297;-67
2022/11/18 10:40:26;;;;;;;62.33;38.07;;;16.10;93.60;;;;;;5017131;28;20218;-67
2022/11/18 10:42:54;;;;;;;60.23;38.93;;;16.40;93.40;;;;;;5021126;28;20204;-68
2022/11/18 10:45:21;;;;;;;63.90;39.43;;;16.40;92.90;;;;;;5031344;28;20219;-67
2022/11/18 10:48:08;;;;;;;58.40;37.67;;;16.50;92.70;;;;;;5040035;28;20214;-67
2022/11/18 10:50:41;;;;;;;62.00;35.00;;;16.50;92.20;;;;;;5021793;28;20213;-68
2022/11/18 10:53:30;;;;;;;53.80;36.63;;;16.60;91.90;;;;;;5028377;28;20208;-66
2022/11/18 10:55:59;;;;;;;58.37;37.43;;;16.50;91.50;;;;;;5021231;28;21095;-67
2022/11/18 10:58:29;;;;;;;51.37;35.20;;;16.40;91.50;;;;;;5026884;28;20199;-69
2022/11/18 11:01:21;;;;;;;56.97;37.37;;;16.30;91.50;;;;;;5023745;28;20266;-66
2022/11/18 11:04:14;;;;;;;60.23;37.83;;;16.20;91.40;;;;;;5020815;28;20212;-68
2022/11/18 11:06:42;;;;;;;62.77;38.17;;;16.00;91.40;;;;;;5020002;28;20202;-67
2022/11/18 11:09:15;;;;;;;64.23;38.03;;;15.90;91.60;;;;;;5027531;28;20203;-69
2022/11/18 11:11:54;;;;;;;66.13;38.07;;;15.80;91.80;;;;;;5017915;28;20188;-65
2022/11/18 11:14:29;;;;;;;60.20;35.97;;;15.70;92.00;;;;;;5018434;28;20214;-66
2022/11/18 11:17:05;;;;;;;62.07;36.43;;;15.70;92.30;;;;;;5021154;28;20202;-67
2022/11/18 11:19:48;;;;;;;67.47;38.70;;;15.80;92.60;;;;;;5023200;28;20202;-67
2022/11/18 11:22:15;;;;;;;60.70;36.10;;;16.00;92.80;;;;;;5021898;28;20588;-66
2022/11/18 11:24:43;;;;;;;56.90;35.47;;;16.10;92.80;;;;;;5021787;28;20230;-67
2022/11/18 11:27:39;;;;;;;56.23;35.23;;;16.40;92.40;;;;;;5023044;28;20200;-66
2022/11/18 11:30:26;;;;;;;60.77;36.97;;;16.50;91.80;;;;;;5021236;28;20204;-67
2022/11/18 11:33:00;;;;;;;55.33;33.30;;;16.50;91.40;;;;;;5018743;28;20598;-66
2022/11/18 11:35:50;;;;;;;52.43;32.13;;;16.50;91.20;;;;;;5017156;28;20932;-66
2022/11/18 11:38:26;;;;;;;42.83;28.30;;;16.50;91.00;;;;;;5023200;28;20274;-67
2022/11/18 11:41:20;;;;;;;45.13;28.00;;;16.50;90.30;;;;;;5018800;28;20207;-68
2022/11/18 11:44:03;;;;;;;45.00;27.73;;;16.50;88.50;;;;;;5018656;28;20575;-68
2022/11/18 11:47:45;;;;;;;38.53;24.20;;;16.50;87.70;;;;;;5021078;28;20288;-68
2022/11/18 11:50:02;;;;;;;44.77;26.93;;;16.50;87.00;;;;;;5019122;28;20317;-68
2022/11/18 11:52:47;;;;;;;42.27;25.60;;;16.50;86.80;;;;;;5019254;28;20207;-66
2022/11/18 11:55:34;;;;;;;44.10;26.40;;;16.50;88.20;;;;;;5024654;28;20202;-65
2022/11/18 11:58:30;;;;;;;40.80;25.97;;;16.60;88.70;;;;;;5017453;28;20559;-68
2022/11/18 12:01:16;;;;;;;39.23;25.27;;;16.70;88.40;;;;;;5019513;28;20207;-66
2022/11/18 12:03:51;;;;;;;43.63;26.77;;;16.80;87.40;;;;;;5020987;28;20285;-68
2022/11/18 12:06:19;;;;;;;48.60;28.07;;;16.70;86.50;;;;;;5023366;28;20284;-68
2022/11/18 12:09:01;;;;;;;50.50;30.47;;;16.60;86.10;;;;;;5019012;28;20208;-68
2022/11/18 12:12:33;;;;;;;42.47;27.03;;;16.60;86.30;;;;;;5018962;28;20652;-64
2022/11/18 12:15:05;;;;;;;41.43;27.37;;;16.60;86.30;;;;;;4980237;28;20208;-65
2022/11/18 12:17:58;;;;;;;44.40;27.57;;;16.70;86.30;;;;;;4982036;28;20229;-65
2022/11/18 12:20:47;;;;;;;46.33;26.80;;;16.80;85.60;;;;;;5018645;28;20230;-65
2022/11/18 12:23:14;;;;;;;41.73;26.90;;;16.90;83.50;;;;;;5019373;28;20248;-66
2022/11/18 12:25:47;;;;;;;41.17;27.67;;;16.90;84.20;;;;;;5022789;28;20296;-66
2022/11/18 12:28:33;;;;;;;44.57;27.30;;;17.00;85.20;;;;;;5020278;28;20193;-69
2022/11/18 12:31:18;;;;;;;42.13;26.83;;;17.00;85.40;;;;;;5020599;28;20203;-65
2022/11/18 12:33:46;;;;;;;43.13;25.77;;;17.20;84.60;;;;;;5021136;28;20268;-65
2022/11/18 12:36:25;;;;;;;37.90;24.90;;;17.20;83.60;;;;;;5024394;28;20212;-68
2022/11/18 12:38:53;;;;;;;40.47;25.27;;;17.30;83.20;;;;;;5030808;28;20214;-67
2022/11/18 12:44:26;;;;;;;38.83;24.97;;;17.30;82.80;;;;;;5022728;28;20204;-65
2022/11/18 12:46:58;;;;;;;41.53;25.90;;;17.30;82.80;;;;;;5024430;28;20231;-66
2022/11/18 12:49:25;;;;;;;36.03;24.70;;;17.30;82.50;;;;;;5026296;28;20226;-67
2022/11/18 12:51:54;;;;;;;39.50;25.47;;;17.40;82.40;;;;;;5026902;28;20294;-66
2022/11/18 12:54:36;;;;;;;40.83;25.70;;;17.40;82.50;;;;;;5025488;28;20205;-66
2022/11/18 12:57:14;;;;;;;41.73;26.57;;;17.40;82.90;;;;;;5021935;28;20207;-66
2022/11/18 12:59:41;;;;;;;42.37;26.50;;;17.40;83.10;;;;;;5025393;28;20202;-66
2022/11/18 13:02:29;;;;;;;44.37;26.63;;;17.40;83.10;;;;;;5022425;28;20192;-65
2022/11/18 13:05:11;;;;;;;43.97;28.00;;;17.40;83.00;;;;;;5022365;28;20235;-66
2022/11/18 13:08:12;;;;;;;44.40;27.13;;;17.40;82.90;;;;;;5024778;28;20262;-69